Terminal Aerodrome Forecast
Issued by NWS

Home | Current Version | Previous Version | Text Only | Print | Product List | Glossary On
Versions: 1 2 3 4 5 6 7 8 9 10 11 12 13 14 15 16 17 18 19 20 21 22 23 24 25 26 27 28 29 30 31 32 33 34 35 36 37 38 39 40 41 42 43 44 45 46 47 48 49
000
FTUS44 KHGX 290921 AAA
TAFIAH
TAF AMD
KIAH 290921Z 2909/3012 00000KT 5SM MIFG BR FEW003 WS020/20030KT
     FM291000 19003KT 4SM BR SCT007 SCT250
      TEMPO 2912/2915 1SM BR
     FM291630 23007KT P6SM FEW020 SCT250
     FM300100 35006KT P6SM BKN100
     FM300600 01012KT P6SM BKN100=

USA.gov is the U.S. government's official web portal to all federal, state and local government web resources and services.